Time;durP1;ratioP1;P1;durP2;ratioP2;P2;SDS_P1;SDS_P2;PMS_P1;PMS_P2;Temp;Humidity;BMP_temperature;BMP_pressure;BME280_temperature;BME280_humidity;BME280_pressure;Samples;Min_cycle;Max_cycle;Signal;HPM_P1;HPM_P2
2022/04/30 00:00:40;;;;;;;;;6.00;6.00;;;;;;;;5120746;27;21563;-66
2022/04/30 00:03:07;;;;;;;;;5.75;5.75;;;;;;;;5121514;27;11298;-66
2022/04/30 00:05:32;;;;;;;;;6.75;5.00;;;;;;;;5120974;28;11472;-66
2022/04/30 00:07:59;;;;;;;;;7.00;7.00;;;;;;;;5121147;27;11821;-66
2022/04/30 00:10:24;;;;;;;;;5.25;5.00;;;;;;;;5121030;27;10354;-66
2022/04/30 00:12:49;;;;;;;;;10.25;7.50;;;;;;;;5121298;27;11447;-66
2022/04/30 00:15:14;;;;;;;;;9.00;7.00;;;;;;;;5120401;27;22551;-65
2022/04/30 00:17:40;;;;;;;;;6.00;6.00;;;;;;;;5120564;28;21634;-66
2022/04/30 00:20:06;;;;;;;;;9.00;6.25;;;;;;;;5120968;27;8794;-66
2022/04/30 00:22:31;;;;;;;;;7.00;5.00;;;;;;;;5120850;27;11298;-65
2022/04/30 00:24:56;;;;;;;;;7.50;7.50;;;;;;;;5120234;27;11355;-66
2022/04/30 00:27:22;;;;;;;;;6.25;6.25;;;;;;;;5120331;27;10236;-67
2022/04/30 00:29:47;;;;;;;;;9.50;7.50;;;;;;;;5118305;28;13844;-66
2022/04/30 00:32:12;;;;;;;;;6.00;6.00;;;;;;;;5120855;27;12643;-66
2022/04/30 00:34:38;;;;;;;;;6.75;6.00;;;;;;;;5120971;27;11355;-65
2022/04/30 00:37:03;;;;;;;;;8.25;6.00;;;;;;;;5120936;27;8786;-66
2022/04/30 00:39:32;;;;;;;;;9.00;7.00;;;;;;;;5120793;27;8810;-66
2022/04/30 00:41:57;;;;;;;;;12.00;9.50;;;;;;;;5120948;28;10500;-67
2022/04/30 00:44:23;;;;;;;;;9.50;9.00;;;;;;;;5119887;27;21918;-69
2022/04/30 00:46:48;;;;;;;;;10.75;7.50;;;;;;;;5120806;27;22836;-67
2022/04/30 00:49:14;;;;;;;;;7.50;7.50;;;;;;;;5120017;27;21652;-67
2022/04/30 00:51:39;;;;;;;;;9.75;8.00;;;;;;;;5119955;27;16482;-67
2022/04/30 00:54:06;;;;;;;;;10.00;7.00;;;;;;;;5119183;27;11535;-67
2022/04/30 00:56:46;;;;;;;;;8.50;6.75;;;;;;;;5119884;27;21398;-67
2022/04/30 00:59:16;;;;;;;;;7.00;6.00;;;;;;;;5119650;27;22701;-66
2022/04/30 01:01:42;;;;;;;;;6.50;6.00;;;;;;;;5120265;27;12277;-66
2022/04/30 01:04:07;;;;;;;;;6.00;6.00;;;;;;;;5120919;27;11511;-66
2022/04/30 01:06:51;;;;;;;;;6.00;5.50;;;;;;;;5120881;27;9616;-67
2022/04/30 01:09:17;;;;;;;;;7.50;6.00;;;;;;;;5119234;27;8803;-67
2022/04/30 01:11:44;;;;;;;;;7.50;6.00;;;;;;;;5119864;27;11525;-66
2022/04/30 01:14:10;;;;;;;;;8.25;6.25;;;;;;;;5120110;27;11472;-64
2022/04/30 01:16:35;;;;;;;;;6.00;6.00;;;;;;;;5119205;27;12289;-68
2022/04/30 01:19:01;;;;;;;;;10.75;9.50;;;;;;;;5120108;27;11612;-68
2022/04/30 01:21:28;;;;;;;;;6.00;6.00;;;;;;;;5119468;27;23119;-66
2022/04/30 01:23:54;;;;;;;;;10.50;7.00;;;;;;;;5118251;28;21947;-66
2022/04/30 01:26:22;;;;;;;;;6.00;6.00;;;;;;;;5119584;27;21574;-67
2022/04/30 01:28:47;;;;;;;;;6.75;6.00;;;;;;;;5119928;27;21862;-67
2022/04/30 01:39:27;;;;;;;;;8.75;6.00;;;;;;;;5119515;28;12291;-67
2022/04/30 01:41:52;;;;;;;;;8.00;6.00;;;;;;;;5119785;27;11539;-67
2022/04/30 01:44:19;;;;;;;;;6.00;6.00;;;;;;;;5120044;27;8775;-66
2022/04/30 01:46:45;;;;;;;;;7.50;5.00;;;;;;;;5119725;27;8771;-66
2022/04/30 01:49:15;;;;;;;;;5.50;5.50;;;;;;;;5119067;27;11478;-67
2022/04/30 01:51:46;;;;;;;;;5.75;5.75;;;;;;;;5119054;27;11402;-66
2022/04/30 01:54:13;;;;;;;;;6.00;6.00;;;;;;;;5119672;27;11404;-67
2022/04/30 01:56:38;;;;;;;;;10.00;7.50;;;;;;;;5119189;27;11585;-67
2022/04/30 01:59:03;;;;;;;;;8.75;7.50;;;;;;;;5118697;27;21550;-67
2022/04/30 02:01:29;;;;;;;;;7.75;6.25;;;;;;;;5118883;27;16676;-67
2022/04/30 02:03:55;;;;;;;;;8.50;8.00;;;;;;;;5119178;27;11712;-68
2022/04/30 02:06:21;;;;;;;;;7.25;7.25;;;;;;;;5118729;27;11350;-67
2022/04/30 02:08:46;;;;;;;;;8.75;8.00;;;;;;;;5118853;27;11529;-68
2022/04/30 02:11:12;;;;;;;;;9.75;9.75;;;;;;;;5118102;28;11783;-67
2022/04/30 02:13:38;;;;;;;;;10.00;9.00;;;;;;;;5119555;27;11291;-67
2022/04/30 02:16:04;;;;;;;;;8.75;8.50;;;;;;;;5118733;27;22607;-67
2022/04/30 02:18:30;;;;;;;;;8.50;8.50;;;;;;;;5118653;27;21343;-67
2022/04/30 02:20:56;;;;;;;;;9.75;8.50;;;;;;;;5119502;27;8790;-66
2022/04/30 02:23:22;;;;;;;;;9.50;9.50;;;;;;;;5119455;27;11433;-67
2022/04/30 02:25:49;;;;;;;;;8.25;8.00;;;;;;;;5119764;27;9507;-67
2022/04/30 02:28:14;;;;;;;;;7.50;7.00;;;;;;;;5118742;27;11383;-67
2022/04/30 02:30:39;;;;;;;;;9.00;7.00;;;;;;;;5118689;27;11450;-66
2022/04/30 02:33:09;;;;;;;;;7.50;7.50;;;;;;;;5118892;27;9116;-67
2022/04/30 02:35:35;;;;;;;;;7.75;6.75;;;;;;;;5117019;28;13253;-66
2022/04/30 02:38:03;;;;;;;;;7.00;6.00;;;;;;;;5119596;27;11725;-67
2022/04/30 02:40:29;;;;;;;;;8.50;8.00;;;;;;;;5119006;27;11455;-68
2022/04/30 02:43:00;;;;;;;;;8.00;8.00;;;;;;;;5118383;27;11671;-67
2022/04/30 02:45:26;;;;;;;;;9.00;9.00;;;;;;;;5119648;27;11425;-66
2022/04/30 02:47:56;;;;;;;;;7.50;6.75;;;;;;;;5119167;27;11593;-67
2022/04/30 02:50:22;;;;;;;;;8.50;7.00;;;;;;;;5118929;27;11371;-67
2022/04/30 02:52:48;;;;;;;;;7.00;7.00;;;;;;;;5118736;27;11435;-67
2022/04/30 02:55:13;;;;;;;;;6.25;6.00;;;;;;;;5118792;27;8909;-67
2022/04/30 03:00:39;;;;;;;;;7.50;7.00;;;;;;;;5118467;28;10290;-66
2022/04/30 03:03:05;;;;;;;;;6.75;6.00;;;;;;;;5118961;27;11433;-67
2022/04/30 03:05:31;;;;;;;;;9.00;7.00;;;;;;;;5117368;28;12841;-67
2022/04/30 03:07:57;;;;;;;;;7.00;7.00;;;;;;;;5118680;27;10287;-67
2022/04/30 03:10:22;;;;;;;;;8.25;7.50;;;;;;;;5118163;27;8806;-67
2022/04/30 03:12:49;;;;;;;;;6.00;6.00;;;;;;;;5117909;27;11624;-67
2022/04/30 03:15:16;;;;;;;;;10.75;7.50;;;;;;;;5118040;27;11379;-67
2022/04/30 03:23:09;;;;;;;;;12.75;7.00;;;;;;;;5120935;28;21381;-69
2022/04/30 03:25:34;;;;;;;;;7.75;7.75;;;;;;;;5121362;27;11457;-67
2022/04/30 03:27:59;;;;;;;;;8.25;8.00;;;;;;;;5121313;27;22591;-67
2022/04/30 03:30:24;;;;;;;;;8.50;7.00;;;;;;;;5121989;27;11474;-67
2022/04/30 03:32:50;;;;;;;;;7.50;7.00;;;;;;;;5122084;27;10729;-67
2022/04/30 03:35:15;;;;;;;;;9.50;7.00;;;;;;;;5122092;27;8898;-66
2022/04/30 03:37:40;;;;;;;;;8.75;8.50;;;;;;;;5122123;27;8799;-68
2022/04/30 03:40:06;;;;;;;;;7.75;6.50;;;;;;;;5120001;28;11990;-67
2022/04/30 03:42:33;;;;;;;;;7.67;7.67;;;;;;;;5122374;28;9506;-67
2022/04/30 03:44:59;;;;;;;;;8.00;8.00;;;;;;;;5120394;28;12020;-67
2022/04/30 03:47:24;;;;;;;;;11.25;7.50;;;;;;;;5121778;27;11575;-67
2022/04/30 03:49:49;;;;;;;;;8.00;7.67;;;;;;;;5121630;27;22396;-67
2022/04/30 03:52:15;;;;;;;;;6.75;6.25;;;;;;;;5120541;27;22250;-67
2022/04/30 03:54:40;;;;;;;;;8.00;8.00;;;;;;;;5120883;27;11353;-67
2022/04/30 03:57:06;;;;;;;;;8.00;7.00;;;;;;;;5120913;27;11533;-67
2022/04/30 03:59:31;;;;;;;;;8.00;7.33;;;;;;;;5121752;27;8913;-67
2022/04/30 04:01:57;;;;;;;;;8.67;8.67;;;;;;;;5121510;27;8833;-67
2022/04/30 04:04:23;;;;;;;;;8.00;8.00;;;;;;;;5121260;27;10324;-67
2022/04/30 04:06:48;;;;;;;;;8.00;6.33;;;;;;;;5120949;27;11421;-67
2022/04/30 04:09:13;;;;;;;;;9.33;8.00;;;;;;;;5120941;27;8831;-67
2022/04/30 04:11:38;;;;;;;;;13.00;11.00;;;;;;;;5120803;27;11295;-66
2022/04/30 04:19:32;;;;;;;;;13.67;10.00;;;;;;;;5121578;28;11417;-68
2022/04/30 04:21:57;;;;;;;;;8.00;8.00;;;;;;;;5120446;27;23596;-68
2022/04/30 04:27:06;;;;;;;;;9.00;7.67;;;;;;;;5119559;28;11359;-67
2022/04/30 04:29:31;;;;;;;;;11.00;8.00;;;;;;;;5120912;27;11491;-68
2022/04/30 04:31:57;;;;;;;;;11.33;8.00;;;;;;;;5120490;27;21415;-68
2022/04/30 04:34:22;;;;;;;;;18.00;18.00;;;;;;;;5120946;27;8778;-68
2022/04/30 04:36:50;;;;;;;;;11.67;10.33;;;;;;;;5120074;28;21971;-67
2022/04/30 04:39:16;;;;;;;;;7.00;7.00;;;;;;;;5120963;27;11447;-68
2022/04/30 04:41:45;;;;;;;;;13.00;9.75;;;;;;;;5119834;27;23541;-66
2022/04/30 04:44:10;;;;;;;;;9.00;8.75;;;;;;;;5120550;27;22891;-67
2022/04/30 04:46:37;;;;;;;;;11.25;8.75;;;;;;;;5120372;27;21439;-67
2022/04/30 04:49:04;;;;;;;;;10.00;8.50;;;;;;;;5118351;28;17264;-68
2022/04/30 04:51:29;;;;;;;;;8.75;8.75;;;;;;;;5120061;27;11400;-67
2022/04/30 04:53:55;;;;;;;;;6.00;6.00;;;;;;;;5119959;27;21766;-67
2022/04/30 04:56:20;;;;;;;;;10.50;10.50;;;;;;;;5120606;27;12380;-68
2022/04/30 04:58:45;;;;;;;;;8.00;8.00;;;;;;;;5120271;27;22559;-68
2022/04/30 05:01:11;;;;;;;;;5.25;5.00;;;;;;;;5120361;27;22681;-67
2022/04/30 05:03:36;;;;;;;;;11.50;8.75;;;;;;;;5120220;27;10516;-68
2022/04/30 05:06:01;;;;;;;;;9.67;7.67;;;;;;;;5120408;27;22158;-68
2022/04/30 05:08:26;;;;;;;;;12.00;10.67;;;;;;;;5122374;27;21458;-67
2022/04/30 05:10:52;;;;;;;;;8.00;7.33;;;;;;;;5119559;27;23435;-66
2022/04/30 05:13:17;;;;;;;;;14.33;10.33;;;;;;;;5119316;27;22615;-66
2022/04/30 05:15:43;;;;;;;;;12.00;11.00;;;;;;;;5124043;27;22790;-67
